Bookmark and Share
Track history (hours):
 

Aegean Pride

Last reported at 2014-Apr-16 04:29 UTC. Time now 2014-Apr-16 05:21 UTC.
Position N 41°06' E 001°17'.

; draft 12.8 m.

Type: Ship. MMSI: 636011186.

NotesDate/timePositionNaut miles runAvg speedWind from/ knotsBaromVisibWave heightAir tempDewpointWater temp
2014-Apr-16 04:29N 41°06' E 001°17'0 0.0
2014-Apr-16 03:29N 41°06' E 001°17'0 0.1
2014-Apr-16 01:17N 41°06' E 001°17'0 0.0
2014-Apr-16 00:17N 41°06' E 001°17'0 0.0
2014-Apr-15 23:17N 41°06' E 001°17'0 0.0
2014-Apr-15 22:17N 41°06' E 001°17'0 0.0
2014-Apr-15 21:26N 41°06' E 001°17'0 0.0
2014-Apr-15 20:32N 41°06' E 001°17'0 0.0
2014-Apr-15 18:29N 41°06' E 001°17'0 0.0
2014-Apr-15 17:25N 41°06' E 001°17'0 0.0
2014-Apr-15 15:05N 41°06' E 001°17'0 0.0
2014-Apr-15 05:30N 41°06' E 001°18'0 0.0
2014-Apr-15 01:30N 41°06' E 001°18'0 0.0
2014-Apr-14 16:29N 41°06' E 001°18'0 0.0
2014-Apr-14 11:32N 41°06' E 001°17'0 0.0
2014-Apr-14 08:29N 41°06' E 001°17'0 0.0
2014-Apr-13 20:25N 41°06' E 001°18'0 0.0
2014-Apr-13 02:29N 41°06' E 001°17'0 0.0
2014-Apr-13 01:25N 41°06' E 001°17'0 0.0
2014-Apr-12 22:29N 41°06' E 001°17'0 0.0
2014-Apr-12 21:32N 41°06' E 001°17'0 0.0
2014-Apr-12 20:32N 41°06' E 001°17'0 0.0
2014-Apr-12 19:32N 41°06' E 001°17'0 0.0
2014-Apr-12 18:23N 41°06' E 001°17'0 0.4
2014-Apr-12 17:08N 41°05' E 001°17'3 5.1
2014-Apr-12 16:33N 41°02' E 001°18'1211.1
2014-Apr-12 15:27N 40°56' E 001°32'1011.3
2014-Apr-12 14:33N 40°50' E 001°43'1111.2
2014-Apr-12 13:33N 40°44' E 001°56'1111.5
2014-Apr-12 12:33N 40°38' E 002°08'1111.4
2014-Apr-12 11:33N 40°31' E 002°21'1111.2
2014-Apr-12 10:33N 40°25' E 002°33'1111.1
2014-Apr-12 09:34N 40°19' E 002°46'1111.2
2014-Apr-12 08:33N 40°13' E 002°58'1311.5
2014-Apr-12 07:25N 40°06' E 003°12'1010.9
2014-Apr-12 06:33N 40°01' E 003°22'1010.4
2014-Apr-12 05:33N 39°55' E 003°34'1110.9
2014-Apr-12 04:33N 39°49' E 003°46'1111.0
2014-Apr-12 03:33N 39°43' E 003°58'1111.1
2014-Apr-12 02:33N 39°38' E 004°10'5511.1
2014-Apr-11 21:33N 39°18' E 005°17'1010.4
2014-Apr-11 20:33N 39°14' E 005°30'1110.4
2014-Apr-11 19:32N 39°11' E 005°43'2210.7
2014-Apr-11 17:28N 39°03' E 006°09'3311.3
2014-Apr-11 14:33N 38°51' E 006°49'7910.7
2014-Apr-11 07:09N 38°23' E 008°23'710.5
2014-Apr-11 06:30N 38°20' E 008°32'1010.7
2014-Apr-11 05:33N 38°16' E 008°44'1110.9
2014-Apr-11 04:34N 38°13' E 008°57'1210.7
2014-Apr-11 03:28N 38°09' E 009°10'1010.7
2014-Apr-11 02:33N 38°05' E 009°22'3210.5
2014-Apr-10 23:27N 37°53' E 010°01'910.0
2014-Apr-10 22:31N 37°50' E 010°11'1010.2
2014-Apr-10 21:30N 37°46' E 010°24'9 9.7
2014-Apr-10 20:34N 37°41' E 010°34'11 9.8
2014-Apr-10 19:28N 37°38' E 010°46'9 9.8
2014-Apr-10 18:33N 37°34' E 010°56'1010.2
2014-Apr-10 17:33N 37°29' E 011°08'7410.5
2014-Apr-10 10:33N 36°59' E 012°32'9610.4
2014-Apr-10 01:19N 36°29' E 014°26'810.2
2014-Apr-10 00:33N 36°27' E 014°35'1010.2
2014-Apr-09 23:33N 36°25' E 014°48'1010.4
2014-Apr-09 22:33N 36°25' E 015°01'4410.1
2014-Apr-09 18:10N 36°22' E 015°55'16 9.8
2014-Apr-09 16:34N 36°21' E 016°15'37910.4
2014-Apr-08 04:16N 36°04' E 024°04'811.0
2014-Apr-08 03:33N 36°05' E 024°14'1111.1
2014-Apr-08 02:33N 36°05' E 024°28'1110.9
2014-Apr-08 01:33N 36°05' E 024°41'1111.1
2014-Apr-08 00:34N 36°06' E 024°55'1111.2
2014-Apr-07 23:33N 36°06' E 025°09'1111.2
2014-Apr-07 22:33N 36°07' E 025°23'1111.3
2014-Apr-07 21:34N 36°07' E 025°37'1111.2
2014-Apr-07 20:33N 36°08' E 025°50'1111.0
2014-Apr-07 19:33N 36°08' E 026°04'2110.6
2014-Apr-07 17:32N 36°08' E 026°31'  

Dump ship's entire track history

sailing weather and tide predictions

Aegean Pride — ELXK8 — position and weather